Aviation Digital Data Service (ADDS)

Output produced by METARs form (0228 UTC 22 February 2019)
found at http://www.aviationweather.gov/metar/data/
 
Forecast for: TDPD (MELVILLE HALL AR, DM)
Text: TAF TDPD 211700Z 2118/2218 08014KT 9999 SCT018
Forecast period: 1800 UTC 21 February 2019 to 1800 UTC 22 February 2019
Forecast type: FROM: standard forecast or significant change
Winds: from the E (80 degrees) at 16 MPH (14 knots; 7.2 m/s)
Visibility: 6 or more miles 10+ km)
Ceiling: at least 12,000 feet AGL
Clouds: scattered clouds at 1800 feet AGL
Weather: no significant weather forecast for this period
Text: PROB40
Forecast period: 1800 UTC 21 February 2019 to 1000 UTC 22 February 2019
Forecast type: TEMPORARY: The following changes expected for less than half the time period
Visibility: 3 miles (5 km)
Ceiling: 1400 feet AGL
Clouds: broken clouds at 1400 feet AGL
broken clouds at 4000 feet AGL
Weather: SHRA  (rain showers)